createdAt,value
2022-09-28T00:00:10.767Z,0.80
2022-09-28T00:01:10.646Z,0.30
2022-09-28T00:02:11.878Z,0.50
2022-09-28T00:03:10.662Z,0.40
2022-09-28T00:04:10.738Z,0.40
2022-09-28T00:05:10.607Z,0.40
2022-09-28T00:06:10.777Z,0.40
2022-09-28T00:07:10.564Z,0.40
2022-09-28T00:08:10.616Z,0.50
2022-09-28T00:09:10.537Z,0.30
2022-09-28T00:10:10.647Z,0.40
2022-09-28T00:11:10.536Z,0.40
2022-09-28T00:12:12.687Z,0.30
2022-09-28T00:13:10.477Z,0.30
2022-09-28T00:14:12.608Z,0.30
2022-09-28T00:15:10.456Z,0.30
2022-09-28T00:16:10.753Z,0.30
2022-09-28T00:17:10.447Z,0.40
2022-09-28T00:18:10.485Z,0.30
2022-09-28T00:19:10.406Z,0.20
2022-09-28T00:20:10.518Z,0.40
2022-09-28T00:21:10.388Z,0.40
2022-09-28T00:22:10.457Z,0.30
2022-09-28T00:23:10.368Z,0.20
2022-09-28T00:24:10.497Z,0.40
2022-09-28T00:25:10.329Z,0.40
2022-09-28T00:26:10.428Z,0.20
2022-09-28T00:27:10.287Z,0.20
2022-09-28T00:28:10.365Z,0.30
2022-09-28T00:29:10.386Z,0.30
2022-09-28T00:30:10.397Z,0.30
2022-09-28T00:31:10.269Z,0.20
2022-09-28T00:32:10.349Z,0.30
2022-09-28T00:33:10.219Z,0.20
2022-09-28T00:34:10.375Z,0.20
2022-09-28T00:35:10.207Z,0.20
2022-09-28T00:36:33.400Z,0.20
2022-09-28T00:37:10.164Z,0.30
2022-09-28T00:38:10.238Z,0.30
2022-09-28T00:39:10.189Z,0.30
2022-09-28T00:40:10.276Z,0.30
2022-09-28T00:41:10.134Z,0.30
2022-09-28T00:42:10.210Z,0.30
2022-09-28T00:43:10.097Z,0.40
2022-09-28T00:44:10.249Z,0.20
2022-09-28T00:45:10.064Z,0.40
2022-09-28T00:46:10.152Z,0.40
2022-09-28T00:47:10.047Z,0.30
2022-09-28T00:49:19.604Z,0.30
2022-09-28T00:50:19.385Z,0.40
2022-09-28T00:51:19.425Z,0.30
2022-09-28T00:52:19.375Z,0.50
2022-09-28T00:53:19.463Z,0.40
2022-09-28T00:54:19.334Z,0.40
2022-09-28T00:55:19.394Z,0.50
2022-09-28T00:56:19.304Z,0.50
2022-09-28T00:57:19.443Z,0.40
2022-09-28T00:58:19.295Z,0.50
2022-09-28T00:59:19.475Z,0.30
2022-09-28T01:00:19.244Z,0.40
2022-09-28T01:01:19.369Z,0.40
2022-09-28T01:02:19.278Z,0.40
2022-09-28T01:03:20.372Z,0.30
2022-09-28T01:04:19.223Z,0.40
2022-09-28T01:06:28.505Z,0.50
2022-09-28T01:07:28.454Z,0.40
2022-09-28T01:08:28.595Z,0.40
2022-09-28T01:09:28.445Z,0.50
2022-09-28T01:11:37.819Z,0.40
2022-09-28T01:12:37.702Z,0.40
2022-09-28T01:13:37.841Z,0.50
2022-09-28T01:14:37.694Z,0.30
2022-09-28T01:15:38.802Z,0.30
2022-09-28T01:16:37.673Z,0.40
2022-09-28T01:17:37.821Z,0.30
2022-09-28T01:18:37.622Z,0.40
2022-09-28T01:19:37.652Z,0.20
2022-09-28T01:20:37.622Z,0.40
2022-09-28T01:21:58.659Z,0.30
2022-09-28T01:22:37.575Z,0.30
2022-09-28T01:23:37.722Z,0.20
2022-09-28T01:24:37.542Z,0.30
2022-09-28T01:25:37.682Z,0.30
2022-09-28T01:26:37.533Z,0.30
2022-09-28T01:28:00.662Z,0.30
2022-09-28T01:28:37.491Z,0.20
2022-09-28T01:29:37.482Z,0.20
2022-09-28T01:30:37.600Z,0.20
2022-09-28T01:31:37.491Z,0.20
2022-09-28T01:32:37.682Z,0.40
2022-09-28T01:33:37.431Z,0.30
2022-09-28T01:34:37.464Z,0.20
2022-09-28T01:35:37.394Z,0.30
2022-09-28T01:36:37.493Z,0.20
2022-09-28T01:37:37.373Z,0.20
2022-09-28T01:38:40.761Z,0.20
2022-09-28T01:39:37.341Z,0.30
2022-09-28T01:40:37.531Z,0.30
2022-09-28T01:41:37.311Z,0.40
2022-09-28T01:42:37.402Z,0.20
2022-09-28T01:43:37.292Z,0.30
2022-09-28T01:44:37.396Z,0.30
2022-09-28T01:45:37.292Z,0.30
2022-09-28T01:46:37.371Z,0.20
2022-09-28T01:47:37.242Z,0.40
2022-09-28T01:48:37.411Z,0.30
2022-09-28T01:49:37.211Z,0.20
2022-09-28T01:50:39.451Z,0.20
2022-09-28T01:51:37.191Z,0.30
2022-09-28T01:52:37.285Z,0.30
2022-09-28T01:53:37.162Z,0.30
2022-09-28T01:54:37.211Z,0.40
2022-09-28T01:55:37.131Z,0.30
2022-09-28T01:56:38.222Z,0.30
2022-09-28T01:57:37.109Z,0.30
2022-09-28T01:58:37.289Z,0.40
2022-09-28T01:59:37.083Z,0.30
2022-09-28T02:00:37.296Z,0.30
2022-09-28T02:01:37.051Z,0.30
2022-09-28T02:02:37.211Z,0.30
2022-09-28T02:03:37.040Z,0.30
2022-09-28T02:04:39.181Z,0.30
2022-09-28T02:05:37.000Z,0.40
2022-09-28T02:06:37.131Z,0.30
2022-09-28T02:07:36.971Z,0.30
2022-09-28T02:08:37.111Z,0.40
2022-09-28T02:09:36.950Z,0.30
2022-09-28T02:10:37.004Z,0.30
2022-09-28T02:11:36.920Z,0.30
2022-09-28T02:12:37.085Z,0.20
2022-09-28T02:13:36.915Z,0.20
2022-09-28T02:14:37.018Z,0.20
2022-09-28T02:15:36.871Z,0.40
2022-09-28T02:16:37.080Z,0.40
2022-09-28T02:17:36.837Z,0.30
2022-09-28T02:18:37.041Z,0.30
2022-09-28T02:19:36.820Z,0.30
2022-09-28T02:20:36.920Z,0.20
2022-09-28T02:21:36.781Z,0.30
2022-09-28T02:22:36.910Z,0.40
2022-09-28T02:23:36.770Z,0.20
2022-09-28T02:24:36.861Z,0.20
2022-09-28T02:25:36.740Z,0.20
2022-09-28T02:26:36.930Z,0.20
2022-09-28T02:27:36.721Z,0.30
2022-09-28T02:28:36.912Z,0.30
2022-09-28T02:29:36.680Z,0.20
2022-09-28T02:30:36.753Z,0.20
2022-09-28T02:31:36.821Z,0.20
2022-09-28T02:32:36.740Z,0.20
2022-09-28T02:33:36.632Z,0.10
2022-09-28T02:34:36.722Z,0.30
2022-09-28T02:35:36.600Z,0.30
2022-09-28T02:36:38.750Z,0.30
2022-09-28T02:37:36.571Z,0.20
2022-09-28T02:38:36.641Z,0.10
2022-09-28T02:39:36.580Z,0.20
2022-09-28T02:40:37.679Z,0.10
2022-09-28T02:41:36.527Z,0.20
2022-09-28T02:42:36.661Z,0.20
2022-09-28T02:43:36.483Z,0.20
2022-09-28T02:44:36.651Z,0.10
2022-09-28T02:45:36.510Z,0.10
2022-09-28T02:46:36.640Z,0.20
2022-09-28T02:47:36.442Z,0.20
2022-09-28T02:48:43.598Z,0.20
2022-09-28T02:49:37.429Z,0.10
2022-09-28T02:50:37.530Z,0.20
2022-09-28T02:51:36.381Z,0.10
2022-09-28T02:52:36.543Z,0.20
2022-09-28T02:53:36.364Z,0.20
2022-09-28T02:54:36.483Z,0.20
2022-09-28T02:55:36.406Z,0.20
2022-09-28T02:56:36.410Z,0.40
2022-09-28T02:57:36.300Z,0.20
2022-09-28T02:58:36.352Z,0.20
2022-09-28T02:59:36.279Z,0.20
2022-09-28T03:00:36.435Z,0.30
2022-09-28T03:01:36.290Z,0.30
2022-09-28T03:02:36.418Z,0.40
2022-09-28T03:03:36.240Z,0.30
2022-09-28T03:04:36.349Z,0.10
2022-09-28T03:05:36.207Z,0.30
2022-09-28T03:07:05.089Z,0.30
2022-09-28T03:07:36.174Z,0.40
2022-09-28T03:08:36.219Z,0.20
2022-09-28T03:09:36.150Z,0.20
2022-09-28T03:10:36.259Z,0.30
2022-09-28T03:11:36.130Z,0.20
2022-09-28T03:12:36.229Z,0.30
2022-09-28T03:13:36.091Z,0.30
2022-09-28T03:14:36.229Z,0.30
2022-09-28T03:15:36.069Z,0.30
2022-09-28T03:16:36.272Z,0.30
2022-09-28T03:17:36.047Z,0.20
2022-09-28T03:18:36.156Z,0.20
2022-09-28T03:19:36.019Z,0.30
2022-09-28T03:20:36.136Z,0.30
2022-09-28T03:21:35.980Z,0.20
2022-09-28T03:22:36.168Z,0.40
2022-09-28T03:23:35.967Z,0.30
2022-09-28T03:24:36.051Z,0.20
2022-09-28T03:25:35.939Z,0.20
2022-09-28T03:26:36.039Z,0.30
2022-09-28T03:27:35.909Z,0.30
2022-09-28T03:28:35.977Z,0.20
2022-09-28T03:29:35.892Z,0.20
2022-09-28T03:30:36.058Z,0.20
2022-09-28T03:31:35.893Z,0.30
2022-09-28T03:32:36.049Z,0.10
2022-09-28T03:33:35.828Z,0.30
2022-09-28T03:34:36.998Z,0.20
2022-09-28T03:35:35.811Z,0.20
2022-09-28T03:36:36.889Z,0.10
2022-09-28T03:37:35.784Z,0.20
2022-09-28T03:38:35.848Z,0.20
2022-09-28T03:39:35.749Z,0.20
2022-09-28T03:40:35.918Z,0.20
2022-09-28T03:41:35.728Z,0.20
2022-09-28T03:42:35.768Z,0.30
2022-09-28T03:43:35.697Z,0.20
2022-09-28T03:44:35.750Z,0.30
2022-09-28T03:45:35.703Z,0.40
2022-09-28T03:46:35.789Z,0.30
2022-09-28T03:47:35.648Z,0.30
2022-09-28T03:48:35.777Z,0.20
2022-09-28T03:49:35.618Z,0.20
2022-09-28T03:50:35.766Z,0.30
2022-09-28T03:51:35.598Z,0.20
2022-09-28T03:52:35.699Z,0.20
2022-09-28T03:53:35.569Z,0.20
2022-09-28T03:54:35.687Z,0.20
2022-09-28T03:55:35.549Z,0.20
2022-09-28T03:56:35.666Z,0.10
2022-09-28T03:57:35.516Z,0.30
2022-09-28T03:58:36.630Z,0.30
2022-09-28T03:59:35.487Z,0.20
2022-09-28T04:00:35.758Z,0.20
2022-09-28T04:01:35.509Z,0.20
2022-09-28T04:02:35.698Z,0.20
2022-09-28T04:03:35.437Z,0.30
2022-09-28T04:04:35.609Z,0.40
2022-09-28T04:05:35.409Z,0.20
2022-09-28T04:06:35.597Z,0.20
2022-09-28T04:07:35.379Z,0.10
2022-09-28T04:08:35.485Z,0.20
2022-09-28T04:09:35.357Z,0.30
2022-09-28T04:10:35.408Z,0.20
2022-09-28T04:11:59.483Z,0.20
2022-09-28T04:12:36.349Z,0.30
2022-09-28T04:13:35.416Z,0.40
2022-09-28T04:14:35.287Z,0.30
2022-09-28T04:15:56.440Z,0.30
2022-09-28T04:16:35.324Z,0.20
2022-09-28T04:17:39.785Z,0.20
2022-09-28T04:18:35.297Z,0.20
2022-09-28T04:19:35.317Z,0.20
2022-09-28T04:20:35.208Z,0.20
2022-09-28T04:21:36.387Z,0.30
2022-09-28T04:22:35.186Z,0.20
2022-09-28T04:23:35.288Z,0.30
2022-09-28T04:24:35.188Z,0.20
2022-09-28T04:25:35.227Z,0.20
2022-09-28T04:26:35.128Z,0.30
2022-09-28T04:27:35.318Z,0.10
2022-09-28T04:28:35.104Z,0.50
2022-09-28T04:29:36.217Z,0.20
2022-09-28T04:30:35.117Z,0.30
2022-09-28T04:31:35.200Z,0.30
2022-09-28T04:32:35.055Z,0.20
2022-09-28T04:33:35.087Z,0.30
2022-09-28T04:34:37.202Z,1.00
2022-09-28T04:35:35.018Z,0.40
2022-09-28T04:36:35.227Z,0.20
2022-09-28T04:37:34.998Z,0.10
2022-09-28T04:38:48.766Z,0.20
2022-09-28T04:39:35.956Z,0.40
2022-09-28T04:40:35.091Z,0.30
2022-09-28T04:41:34.937Z,0.30
2022-09-28T04:42:35.036Z,0.30
2022-09-28T04:43:34.917Z,0.20
2022-09-28T04:44:35.031Z,0.20
2022-09-28T04:45:34.924Z,0.20
2022-09-28T04:46:35.054Z,0.30
2022-09-28T04:47:34.855Z,0.30
2022-09-28T04:48:34.936Z,0.20
2022-09-28T04:49:34.826Z,0.20
2022-09-28T04:50:56.917Z,0.30
2022-09-28T04:51:34.805Z,0.30
2022-09-28T04:52:34.956Z,0.20
2022-09-28T04:53:34.775Z,0.30
2022-09-28T04:54:34.946Z,0.20
2022-09-28T04:55:34.755Z,0.20
2022-09-28T04:56:34.847Z,0.20
2022-09-28T04:57:34.726Z,0.30
2022-09-28T04:58:34.756Z,0.20
2022-09-28T04:59:34.696Z,0.50
2022-09-28T05:00:34.846Z,0.30
2022-09-28T05:01:34.900Z,1.10
2022-09-28T05:02:35.800Z,1.30
2022-09-28T05:03:34.646Z,1.00
2022-09-28T05:04:34.765Z,0.60
2022-09-28T05:05:34.615Z,0.40
2022-09-28T05:06:34.752Z,0.30
2022-09-28T05:07:34.616Z,0.30
2022-09-28T05:08:34.634Z,0.20
2022-09-28T05:09:38.247Z,0.30
2022-09-28T05:10:34.549Z,0.40
2022-09-28T05:11:34.635Z,0.30
2022-09-28T05:12:34.539Z,0.30
2022-09-28T05:13:34.572Z,0.30
2022-09-28T05:14:34.495Z,0.40
2022-09-28T05:15:34.607Z,0.40
2022-09-28T05:16:34.485Z,0.30
2022-09-28T05:17:34.646Z,0.30
2022-09-28T05:18:34.472Z,0.50
2022-09-28T05:19:34.474Z,0.40
2022-09-28T05:20:34.415Z,0.50
2022-09-28T05:21:34.515Z,0.30
2022-09-28T05:22:34.395Z,0.30
2022-09-28T05:23:35.474Z,0.30
2022-09-28T05:24:34.385Z,0.30
2022-09-28T05:25:34.485Z,0.40
2022-09-28T05:26:34.343Z,0.40
2022-09-28T05:27:34.525Z,0.30
2022-09-28T05:28:34.313Z,0.40
2022-09-28T05:29:34.362Z,0.40
2022-09-28T05:30:34.316Z,0.30
2022-09-28T05:31:34.425Z,0.60
2022-09-28T05:32:34.264Z,0.20
2022-09-28T05:33:34.444Z,0.30
2022-09-28T05:34:34.224Z,0.30
2022-09-28T05:35:34.361Z,0.50
2022-09-28T05:36:34.234Z,0.40
2022-09-28T05:38:45.691Z,0.20
2022-09-28T05:39:43.460Z,0.20
2022-09-28T05:40:43.683Z,0.40
2022-09-28T05:41:43.469Z,0.40
2022-09-28T05:42:44.573Z,2.00
2022-09-28T05:43:43.420Z,1.50
2022-09-28T05:44:43.480Z,1.70
2022-09-28T05:45:43.476Z,1.10
2022-09-28T05:46:43.519Z,0.50
2022-09-28T05:47:43.380Z,1.50
2022-09-28T05:49:05.453Z,1.20
2022-09-28T05:49:43.340Z,0.90
2022-09-28T05:50:43.489Z,1.00
2022-09-28T05:51:43.320Z,0.80
2022-09-28T05:52:43.319Z,0.90
2022-09-28T05:53:43.301Z,1.00
2022-09-28T05:54:43.357Z,0.90
2022-09-28T05:55:43.259Z,0.80
2022-09-28T05:56:43.394Z,0.80
2022-09-28T05:57:43.231Z,0.80
2022-09-28T05:58:43.329Z,0.90
2022-09-28T05:59:43.230Z,0.80
2022-09-28T06:01:06.516Z,0.80
2022-09-28T06:01:43.228Z,0.70
2022-09-28T06:02:43.226Z,0.90
2022-09-28T06:03:43.276Z,0.60
2022-09-28T06:04:43.139Z,0.60
2022-09-28T06:05:43.357Z,0.60
2022-09-28T06:06:43.112Z,0.60
2022-09-28T06:07:43.129Z,0.60
2022-09-28T06:08:43.089Z,0.50
2022-09-28T06:09:43.169Z,0.50
2022-09-28T06:10:43.058Z,0.50
2022-09-28T06:11:43.160Z,0.50
2022-09-28T06:12:43.038Z,0.60
2022-09-28T06:13:43.139Z,0.50
2022-09-28T06:14:43.008Z,0.20
2022-09-28T06:15:43.079Z,0.50
2022-09-28T06:16:43.965Z,0.50
2022-09-28T06:17:43.058Z,0.50
2022-09-28T06:18:42.957Z,0.50
2022-09-28T06:19:43.049Z,0.30
2022-09-28T06:20:42.934Z,0.60
2022-09-28T06:21:43.088Z,0.40
2022-09-28T06:22:42.900Z,0.50
2022-09-28T06:23:49.167Z,0.40
2022-09-28T06:24:42.878Z,0.50
2022-09-28T06:25:42.949Z,0.50
2022-09-28T06:26:42.848Z,0.40
2022-09-28T06:27:43.917Z,0.50
2022-09-28T06:28:42.818Z,0.50
2022-09-28T06:29:42.989Z,0.60
2022-09-28T06:30:42.859Z,0.50
2022-09-28T06:31:43.896Z,0.50
2022-09-28T06:32:42.778Z,0.70
2022-09-28T06:33:47.043Z,0.70
2022-09-28T06:34:45.349Z,0.90
2022-09-28T06:35:45.329Z,0.60
2022-09-28T06:36:43.464Z,0.80
2022-09-28T06:37:43.688Z,0.70
2022-09-28T06:38:43.625Z,0.60
2022-09-28T06:39:44.197Z,0.60
2022-09-28T06:40:43.269Z,0.70
2022-09-28T06:41:43.045Z,0.90
2022-09-28T06:42:42.837Z,0.80
2022-09-28T06:43:43.089Z,0.60
2022-09-28T06:44:43.966Z,0.60
2022-09-28T06:45:42.649Z,0.70
2022-09-28T06:46:42.779Z,0.90
2022-09-28T06:47:42.594Z,0.90
2022-09-28T06:48:44.930Z,0.80
2022-09-28T06:49:42.548Z,0.80
2022-09-28T06:50:44.645Z,0.80
2022-09-28T06:51:42.527Z,0.60
2022-09-28T06:52:42.616Z,0.80
2022-09-28T06:53:43.117Z,0.80
2022-09-28T06:54:44.261Z,0.80
2022-09-28T06:55:46.903Z,1.00
2022-09-28T06:56:42.555Z,0.90
2022-09-28T06:57:42.991Z,0.70
2022-09-28T06:58:42.438Z,0.80
2022-09-28T06:59:42.780Z,1.00
2022-09-28T07:00:43.110Z,1.10
2022-09-28T07:01:43.126Z,1.00
2022-09-28T07:02:42.725Z,1.00
2022-09-28T07:03:42.930Z,0.90
2022-09-28T07:04:42.349Z,1.10
2022-09-28T07:05:43.049Z,0.90
2022-09-28T07:06:42.574Z,1.10
2022-09-28T07:07:42.768Z,1.30
2022-09-28T07:08:42.627Z,1.10
2022-09-28T07:09:49.346Z,1.00
2022-09-28T07:10:43.627Z,1.10
2022-09-28T07:11:43.591Z,1.30
2022-09-28T07:12:42.633Z,1.30
2022-09-28T07:14:03.659Z,1.70
2022-09-28T07:14:47.728Z,1.50
2022-09-28T07:15:43.438Z,1.40
2022-09-28T07:17:07.889Z,1.50
2022-09-28T07:17:55.379Z,1.60
2022-09-28T07:18:43.157Z,1.60
2022-09-28T07:19:42.215Z,1.90
2022-09-28T07:20:52.544Z,1.40
2022-09-28T07:21:43.563Z,1.60
2022-09-28T07:22:43.866Z,1.50
2022-09-28T07:23:51.640Z,1.60
2022-09-28T07:24:43.080Z,1.70
2022-09-28T07:25:42.225Z,1.90
2022-09-28T07:26:42.047Z,1.80
2022-09-28T07:27:42.207Z,1.40
2022-09-28T07:28:42.028Z,1.50
2022-09-28T07:29:42.227Z,1.50
2022-09-28T07:30:42.484Z,1.60
2022-09-28T07:31:44.564Z,1.60
2022-09-28T07:32:42.506Z,1.80
2022-09-28T07:33:42.116Z,1.60
2022-09-28T07:34:41.937Z,1.80
2022-09-28T07:35:42.097Z,1.80
2022-09-28T07:36:41.925Z,1.60
2022-09-28T07:37:44.137Z,1.70
2022-09-28T07:38:41.887Z,1.90
2022-09-28T07:39:42.054Z,2.00
2022-09-28T07:40:45.127Z,1.90
2022-09-28T07:41:42.857Z,1.90
2022-09-28T07:43:03.986Z,1.90
2022-09-28T07:43:41.827Z,2.00
2022-09-28T07:44:41.907Z,2.20
2022-09-28T07:45:41.878Z,2.00
2022-09-28T07:46:41.949Z,2.00
2022-09-28T07:47:41.768Z,2.00
2022-09-28T07:48:41.877Z,1.70
2022-09-28T07:49:41.747Z,2.30
2022-09-28T07:50:43.908Z,1.70
2022-09-28T07:51:41.739Z,2.20
2022-09-28T07:52:42.465Z,2.20
2022-09-28T07:53:41.701Z,2.10
2022-09-28T07:54:41.787Z,2.50
2022-09-28T07:55:41.659Z,2.50
2022-09-28T07:56:42.747Z,2.30
2022-09-28T07:57:41.668Z,2.30
2022-09-28T07:58:41.757Z,2.60
2022-09-28T07:59:41.610Z,2.50
2022-09-28T08:00:43.787Z,2.70
2022-09-28T08:01:41.658Z,2.60
2022-09-28T08:02:41.702Z,3.00
2022-09-28T08:03:41.577Z,2.90
2022-09-28T08:04:41.667Z,3.20
2022-09-28T08:05:41.537Z,2.70
2022-09-28T08:06:41.722Z,2.80
2022-09-28T08:07:41.505Z,3.00
2022-09-28T08:09:05.845Z,2.50
2022-09-28T08:09:41.477Z,3.10
2022-09-28T08:10:44.522Z,2.90
2022-09-28T08:11:43.221Z,3.10
2022-09-28T08:12:42.093Z,2.70
2022-09-28T08:13:41.956Z,2.60
2022-09-28T08:14:42.212Z,3.20
2022-09-28T08:15:41.987Z,2.80
2022-09-28T08:16:41.583Z,2.60
2022-09-28T08:17:41.376Z,3.00
2022-09-28T08:18:41.637Z,3.20
2022-09-28T08:19:41.345Z,2.90
2022-09-28T08:20:41.399Z,3.20
2022-09-28T08:21:41.358Z,3.10
2022-09-28T08:22:41.952Z,3.00
2022-09-28T08:23:41.296Z,3.30
2022-09-28T08:24:41.427Z,2.90
2022-09-28T08:25:41.267Z,2.90
2022-09-28T08:26:41.427Z,2.70
2022-09-28T08:27:41.239Z,2.50
2022-09-28T08:28:42.612Z,2.80
2022-09-28T08:29:41.964Z,2.40
2022-09-28T08:30:41.385Z,2.10
2022-09-28T08:31:41.189Z,2.40
2022-09-28T08:32:41.328Z,2.10
2022-09-28T08:33:41.160Z,1.40
2022-09-28T08:34:42.336Z,1.90
2022-09-28T08:35:41.136Z,1.80
2022-09-28T08:36:43.338Z,2.10
2022-09-28T08:37:41.107Z,1.90
2022-09-28T08:38:41.226Z,1.70
2022-09-28T08:39:41.086Z,1.80
2022-09-28T08:40:43.260Z,1.60
2022-09-28T08:41:41.116Z,1.80
2022-09-28T08:42:41.148Z,1.80
2022-09-28T08:43:41.026Z,1.60
2022-09-28T08:44:41.237Z,1.60
2022-09-28T08:45:41.041Z,2.00
2022-09-28T08:46:41.117Z,1.80
2022-09-28T08:47:40.976Z,1.90
2022-09-28T08:48:41.056Z,2.00
2022-09-28T08:49:40.956Z,1.70
2022-09-28T08:50:41.027Z,1.70
2022-09-28T08:51:40.930Z,2.00
2022-09-28T08:52:41.172Z,2.10
2022-09-28T08:53:40.911Z,1.80
2022-09-28T08:54:41.068Z,1.50
2022-09-28T08:55:40.877Z,1.60
2022-09-28T08:56:40.986Z,1.60
2022-09-28T08:57:40.846Z,1.80
2022-09-28T08:58:40.929Z,1.90
2022-09-28T08:59:40.828Z,2.00
2022-09-28T09:00:41.895Z,2.00
2022-09-28T09:01:40.846Z,2.00
2022-09-28T09:02:40.898Z,1.80
2022-09-28T09:03:40.758Z,1.70
2022-09-28T09:04:40.932Z,1.70
2022-09-28T09:05:40.775Z,1.80
2022-09-28T09:06:40.869Z,1.80
2022-09-28T09:07:40.741Z,1.90
2022-09-28T09:08:40.860Z,2.00
2022-09-28T09:09:40.679Z,1.90
2022-09-28T09:10:40.840Z,2.00
2022-09-28T09:11:40.671Z,1.60
2022-09-28T09:12:40.803Z,1.50
2022-09-28T09:13:40.628Z,1.40
2022-09-28T09:14:40.768Z,1.60
2022-09-28T09:15:40.619Z,1.80
2022-09-28T09:16:40.713Z,1.50
2022-09-28T09:17:40.578Z,1.40
2022-09-28T09:18:40.618Z,1.50
2022-09-28T09:19:40.566Z,1.10
2022-09-28T09:20:40.687Z,0.80
2022-09-28T09:21:40.542Z,1.30
2022-09-28T09:22:41.679Z,1.20
2022-09-28T09:23:40.498Z,1.30
2022-09-28T09:24:41.607Z,1.30
2022-09-28T09:25:40.467Z,1.20
2022-09-28T09:26:40.573Z,1.20
2022-09-28T09:27:40.449Z,1.10
2022-09-28T09:28:40.557Z,1.20
2022-09-28T09:29:40.418Z,1.30
2022-09-28T09:30:40.655Z,0.90
2022-09-28T09:31:40.389Z,1.00
2022-09-28T09:32:40.486Z,0.90
2022-09-28T09:33:40.358Z,1.30
2022-09-28T09:34:40.460Z,1.00
2022-09-28T09:35:40.329Z,1.20
2022-09-28T09:36:41.267Z,1.10
2022-09-28T09:37:40.307Z,1.10
2022-09-28T09:38:40.488Z,1.20
2022-09-28T09:39:40.296Z,1.10
2022-09-28T09:40:41.443Z,0.90
2022-09-28T09:41:40.258Z,0.80
2022-09-28T09:42:40.306Z,1.00
2022-09-28T09:43:40.230Z,1.00
2022-09-28T09:44:40.388Z,0.80
2022-09-28T09:45:40.239Z,0.90
2022-09-28T09:46:40.273Z,1.10
2022-09-28T09:47:40.194Z,0.90
2022-09-28T09:48:40.221Z,0.90
2022-09-28T09:49:40.148Z,1.00
2022-09-28T09:50:40.298Z,0.80
2022-09-28T09:51:40.120Z,0.80
2022-09-28T09:52:43.778Z,0.90
2022-09-28T09:53:40.099Z,0.90
2022-09-28T09:54:40.208Z,0.80
2022-09-28T09:55:40.069Z,0.90
2022-09-28T09:56:41.218Z,0.80
2022-09-28T09:57:40.047Z,0.80
2022-09-28T09:58:40.189Z,0.80
2022-09-28T09:59:40.048Z,0.80
2022-09-28T10:00:40.121Z,0.80
2022-09-28T10:01:40.071Z,0.80
2022-09-28T10:02:42.147Z,0.70
2022-09-28T10:03:39.960Z,0.60
2022-09-28T10:04:40.089Z,0.70
2022-09-28T10:05:39.939Z,0.70
2022-09-28T10:06:40.032Z,0.70
2022-09-28T10:07:43.296Z,0.70
2022-09-28T10:08:39.920Z,0.90
2022-09-28T10:09:40.027Z,0.60
2022-09-28T10:10:39.869Z,0.70
2022-09-28T10:11:40.061Z,0.60
2022-09-28T10:12:39.847Z,0.60
2022-09-28T10:13:42.091Z,0.60
2022-09-28T10:14:39.840Z,0.50
2022-09-28T10:15:39.931Z,0.50
2022-09-28T10:16:39.854Z,0.60
2022-09-28T10:17:39.810Z,0.70
2022-09-28T10:18:39.769Z,0.60
2022-09-28T10:19:39.905Z,0.70
2022-09-28T10:20:39.761Z,0.40
2022-09-28T10:21:39.841Z,0.40
2022-09-28T10:22:39.710Z,0.70
2022-09-28T10:23:39.772Z,0.60
2022-09-28T10:24:39.690Z,0.50
2022-09-28T10:26:00.744Z,0.60
2022-09-28T10:26:39.663Z,0.60
2022-09-28T10:27:39.743Z,0.40
2022-09-28T10:28:39.631Z,0.60
2022-09-28T10:29:39.822Z,0.50
2022-09-28T10:30:39.658Z,0.50
2022-09-28T10:31:40.825Z,0.50
2022-09-28T10:32:39.629Z,0.60
2022-09-28T10:33:39.651Z,0.50
2022-09-28T10:34:39.552Z,0.40
2022-09-28T10:35:39.689Z,0.60
2022-09-28T10:36:39.522Z,0.50
2022-09-28T10:37:39.672Z,0.40
2022-09-28T10:38:39.502Z,0.70
2022-09-28T10:39:40.682Z,0.80
2022-09-28T10:40:39.597Z,0.60
2022-09-28T10:42:00.573Z,0.40
2022-09-28T10:42:39.442Z,0.50
2022-09-28T10:43:46.515Z,0.50
2022-09-28T10:44:40.423Z,0.50
2022-09-28T10:45:39.623Z,0.60
2022-09-28T10:46:39.393Z,0.50
2022-09-28T10:47:39.423Z,0.60
2022-09-28T10:48:40.080Z,0.50
2022-09-28T10:49:44.362Z,0.60
2022-09-28T10:50:40.341Z,0.60
2022-09-28T10:51:39.362Z,0.70
2022-09-28T10:52:39.313Z,0.70
2022-09-28T10:53:39.414Z,0.60
2022-09-28T10:54:39.285Z,0.70
2022-09-28T10:55:39.393Z,0.50
2022-09-28T10:56:39.253Z,0.50
2022-09-28T10:57:39.293Z,0.60
2022-09-28T10:58:39.233Z,0.60
2022-09-28T10:59:39.413Z,0.60
2022-09-28T11:00:39.210Z,0.50
2022-09-28T11:01:39.338Z,0.40
2022-09-28T11:02:39.193Z,0.50
2022-09-28T11:03:39.281Z,0.60
2022-09-28T11:04:39.144Z,0.60
2022-09-28T11:05:39.314Z,0.50
2022-09-28T11:06:39.125Z,0.40
2022-09-28T11:07:39.305Z,0.70
2022-09-28T11:08:39.104Z,0.50
2022-09-28T11:09:39.184Z,0.50
2022-09-28T11:10:39.077Z,0.50
2022-09-28T11:12:01.145Z,0.30
2022-09-28T11:12:39.053Z,0.40
2022-09-28T11:13:39.213Z,0.30
2022-09-28T11:14:42.529Z,0.60
2022-09-28T11:15:39.005Z,0.40
2022-09-28T11:16:40.166Z,0.40
2022-09-28T11:17:38.984Z,0.40
2022-09-28T11:18:39.094Z,0.50
2022-09-28T11:19:38.976Z,0.50
2022-09-28T11:20:40.544Z,0.50
2022-09-28T11:21:38.934Z,0.40
2022-09-28T11:22:39.064Z,0.40
2022-09-28T11:23:38.907Z,0.50
2022-09-28T11:24:38.996Z,0.50
2022-09-28T11:25:38.914Z,0.60
2022-09-28T11:26:38.933Z,0.30
2022-09-28T11:27:38.850Z,0.40
2022-09-28T11:28:38.966Z,0.70
2022-09-28T11:29:38.834Z,0.60
2022-09-28T11:30:40.114Z,0.50
2022-09-28T11:31:38.825Z,0.40
2022-09-28T11:32:38.846Z,0.40
2022-09-28T11:33:38.799Z,0.60
2022-09-28T11:34:58.229Z,0.50
2022-09-28T11:35:39.746Z,0.40
2022-09-28T11:36:38.814Z,0.40
2022-09-28T11:37:38.755Z,0.40
2022-09-28T11:38:38.846Z,0.50
2022-09-28T11:39:38.687Z,0.40
2022-09-28T11:40:38.918Z,0.60
2022-09-28T11:41:38.672Z,0.40
2022-09-28T11:42:40.814Z,0.40
2022-09-28T11:43:38.667Z,0.50
2022-09-28T11:44:38.748Z,0.40
2022-09-28T11:45:38.683Z,0.40
2022-09-28T11:46:38.688Z,0.40
2022-09-28T11:47:38.589Z,0.40
2022-09-28T11:48:38.724Z,0.30
2022-09-28T11:49:38.577Z,0.40
2022-09-28T11:50:38.656Z,0.50
2022-09-28T11:51:38.537Z,0.50
2022-09-28T11:52:38.595Z,0.50
2022-09-28T11:53:38.512Z,0.50
2022-09-28T11:54:38.628Z,0.40
2022-09-28T11:55:38.496Z,0.40
2022-09-28T11:56:38.568Z,0.50
2022-09-28T11:57:38.460Z,0.50
2022-09-28T11:58:59.578Z,0.30
2022-09-28T11:59:38.429Z,0.30
2022-09-28T12:00:39.914Z,0.40
2022-09-28T12:01:39.252Z,0.40
2022-09-28T12:02:39.085Z,0.50
2022-09-28T12:03:38.543Z,0.50
2022-09-28T12:04:38.506Z,0.40
2022-09-28T12:05:38.428Z,0.40
2022-09-28T12:06:38.440Z,0.40
2022-09-28T12:07:38.328Z,0.50
2022-09-28T12:08:38.478Z,0.40
2022-09-28T12:09:38.299Z,0.50
2022-09-28T12:10:43.339Z,0.40
2022-09-28T12:11:39.269Z,0.30
2022-09-28T12:12:38.343Z,0.40
2022-09-28T12:13:38.260Z,0.50
2022-09-28T12:14:38.386Z,0.40
2022-09-28T12:15:59.223Z,0.60
2022-09-28T12:17:04.282Z,0.40
2022-09-28T12:17:39.450Z,0.50
2022-09-28T12:18:38.181Z,0.60
2022-09-28T12:19:38.379Z,0.40
2022-09-28T12:20:38.154Z,0.50
2022-09-28T12:21:38.261Z,0.40
2022-09-28T12:22:38.128Z,0.30
2022-09-28T12:23:38.191Z,0.40
2022-09-28T12:24:38.094Z,0.40
2022-09-28T12:25:38.181Z,0.30
2022-09-28T12:26:38.170Z,0.50
2022-09-28T12:27:39.191Z,0.70
2022-09-28T12:28:38.041Z,0.50
2022-09-28T12:29:38.209Z,0.40
2022-09-28T12:30:38.098Z,0.30
2022-09-28T12:31:38.195Z,0.50
2022-09-28T12:32:37.991Z,0.40
2022-09-28T12:33:40.170Z,0.50
2022-09-28T12:34:37.971Z,0.40
2022-09-28T12:35:38.110Z,0.60
2022-09-28T12:36:37.942Z,0.40
2022-09-28T12:37:38.092Z,0.40
2022-09-28T12:38:37.913Z,0.40
2022-09-28T12:39:56.436Z,0.40
2022-09-28T12:40:39.044Z,0.40
2022-09-28T12:41:37.875Z,0.30
2022-09-28T12:42:37.972Z,0.70
2022-09-28T12:43:37.872Z,0.40
2022-09-28T12:44:38.012Z,0.50
2022-09-28T12:45:53.226Z,0.50
2022-09-28T12:46:38.837Z,0.40
2022-09-28T12:47:37.913Z,0.40
2022-09-28T12:48:37.781Z,0.40
2022-09-28T12:50:59.950Z,0.40
2022-09-28T12:51:37.742Z,0.50
2022-09-28T12:52:37.883Z,0.30
2022-09-28T12:53:37.714Z,0.40
2022-09-28T12:54:37.892Z,0.40
2022-09-28T12:55:37.712Z,0.50
2022-09-28T12:56:37.723Z,0.40
2022-09-28T12:57:37.676Z,0.40
2022-09-28T12:58:37.763Z,0.50
2022-09-28T12:59:37.634Z,0.60
2022-09-28T13:00:37.803Z,0.50
2022-09-28T13:01:37.681Z,0.40
2022-09-28T13:02:37.884Z,0.40
2022-09-28T13:03:37.593Z,0.50
2022-09-28T13:04:37.664Z,0.50
2022-09-28T13:05:37.564Z,0.40
2022-09-28T13:06:37.602Z,0.50
2022-09-28T13:07:37.555Z,0.40
2022-09-28T13:08:37.728Z,0.50
2022-09-28T13:09:37.495Z,0.40
2022-09-28T13:10:58.692Z,0.30
2022-09-28T13:11:37.519Z,0.40
2022-09-28T13:12:37.602Z,0.40
2022-09-28T13:13:37.520Z,0.40
2022-09-28T13:14:37.785Z,0.40
2022-09-28T13:15:37.484Z,0.50
2022-09-28T13:16:37.484Z,0.40
2022-09-28T13:17:37.396Z,0.60
2022-09-28T13:18:37.507Z,0.40
2022-09-28T13:19:37.394Z,0.50
2022-09-28T13:20:37.546Z,0.50
2022-09-28T13:21:37.353Z,0.30
2022-09-28T13:22:39.990Z,0.40
2022-09-28T13:23:38.317Z,0.40